createdAt,value
2018-12-03T00:00:19.010Z,11.51
2018-12-03T00:01:18.899Z,11.51
2018-12-03T00:02:18.844Z,11.52
2018-12-03T00:03:18.622Z,11.56
2018-12-03T00:04:18.716Z,11.57
2018-12-03T00:05:19.078Z,11.55
2018-12-03T00:06:18.729Z,11.55
2018-12-03T00:07:18.724Z,11.54
2018-12-03T00:08:18.842Z,11.54
2018-12-03T00:09:18.649Z,11.53
2018-12-03T00:10:18.892Z,11.5
2018-12-03T00:11:18.833Z,11.49
2018-12-03T00:12:18.767Z,11.49
2018-12-03T00:13:18.671Z,11.45
2018-12-03T00:14:18.812Z,11.5
2018-12-03T00:15:18.689Z,11.53
2018-12-03T00:16:18.639Z,11.51
2018-12-03T00:17:18.643Z,11.54
2018-12-03T00:18:19.137Z,11.5
2018-12-03T00:19:18.759Z,11.5
2018-12-03T00:20:18.834Z,11.51
2018-12-03T00:21:18.747Z,11.52
2018-12-03T00:22:18.610Z,11.56
2018-12-03T00:23:18.824Z,11.53
2018-12-03T00:24:18.838Z,11.56
2018-12-03T00:25:18.832Z,11.55
2018-12-03T00:26:18.754Z,11.56
2018-12-03T00:27:18.613Z,11.54
2018-12-03T00:28:18.785Z,11.55
2018-12-03T00:29:18.846Z,11.54
2018-12-03T00:30:18.664Z,11.57
2018-12-03T00:31:18.695Z,11.54
2018-12-03T00:32:18.818Z,11.51
2018-12-03T00:33:18.694Z,11.53
2018-12-03T00:34:18.895Z,11.53
2018-12-03T00:35:18.814Z,11.51
2018-12-03T00:36:18.610Z,11.51
2018-12-03T00:37:18.644Z,11.55
2018-12-03T00:38:18.640Z,11.55
2018-12-03T00:39:18.699Z,11.54
2018-12-03T00:40:18.787Z,11.53
2018-12-03T00:41:18.734Z,11.53
2018-12-03T00:42:18.650Z,11.54
2018-12-03T00:43:18.605Z,11.49
2018-12-03T00:44:18.883Z,11.52
2018-12-03T00:45:18.618Z,11.54
2018-12-03T00:46:18.652Z,11.6
2018-12-03T00:47:18.913Z,11.6
2018-12-03T00:48:18.798Z,11.58
2018-12-03T00:49:18.673Z,11.59
2018-12-03T00:50:18.736Z,11.56
2018-12-03T00:51:18.778Z,11.57
2018-12-03T00:52:18.638Z,11.56
2018-12-03T00:53:18.935Z,11.58
2018-12-03T00:54:18.801Z,11.58
2018-12-03T00:55:18.808Z,11.56
2018-12-03T00:56:18.643Z,11.55
2018-12-03T00:57:18.753Z,11.57
2018-12-03T00:58:18.691Z,11.58
2018-12-03T00:59:18.870Z,11.56
2018-12-03T01:00:18.794Z,11.58
2018-12-03T01:01:18.580Z,11.58
2018-12-03T01:02:18.755Z,11.57
2018-12-03T01:03:18.848Z,11.57
2018-12-03T01:04:18.791Z,11.56
2018-12-03T01:05:18.589Z,11.56
2018-12-03T01:06:18.769Z,11.58
2018-12-03T01:07:18.592Z,11.59
2018-12-03T01:08:18.692Z,11.57
2018-12-03T01:09:18.971Z,11.57
2018-12-03T01:10:18.666Z,11.52
2018-12-03T01:11:18.707Z,11.57
2018-12-03T01:12:18.775Z,11.59
2018-12-03T01:13:18.603Z,11.56
2018-12-03T01:14:18.750Z,11.61
2018-12-03T01:15:18.528Z,11.58
2018-12-03T01:16:18.786Z,11.61
2018-12-03T01:17:18.648Z,11.59
2018-12-03T01:18:18.571Z,11.57
2018-12-03T01:19:18.630Z,11.58
2018-12-03T01:20:18.596Z,11.56
2018-12-03T01:21:18.676Z,11.57
2018-12-03T01:22:18.604Z,11.57
2018-12-03T01:23:18.587Z,11.55
2018-12-03T01:24:18.579Z,11.55
2018-12-03T01:25:18.632Z,11.61
2018-12-03T01:26:18.636Z,11.58
2018-12-03T01:27:18.581Z,11.57
2018-12-03T01:28:18.941Z,11.6
2018-12-03T01:29:18.906Z,11.57
2018-12-03T01:30:18.638Z,11.57
2018-12-03T01:31:18.537Z,11.57
2018-12-03T01:32:18.567Z,11.55
2018-12-03T01:33:18.575Z,11.53
2018-12-03T01:34:18.522Z,11.54
2018-12-03T01:35:18.758Z,11.54
2018-12-03T01:36:18.975Z,11.52
2018-12-03T01:37:18.620Z,11.48
2018-12-03T01:38:18.626Z,11.53
2018-12-03T01:39:18.561Z,11.52
2018-12-03T01:40:18.568Z,11.58
2018-12-03T01:41:18.579Z,11.53
2018-12-03T01:42:18.501Z,11.56
2018-12-03T01:43:18.727Z,11.52
2018-12-03T01:44:18.512Z,11.54
2018-12-03T01:45:18.639Z,11.53
2018-12-03T01:46:18.708Z,11.53
2018-12-03T01:47:18.523Z,11.54
2018-12-03T01:48:19.406Z,11.59
2018-12-03T01:49:18.836Z,11.57
2018-12-03T01:50:18.757Z,11.58
2018-12-03T01:51:18.653Z,11.57
2018-12-03T01:52:18.720Z,11.54
2018-12-03T01:53:18.748Z,11.57
2018-12-03T01:54:18.601Z,11.57
2018-12-03T01:55:18.578Z,11.52
2018-12-03T01:56:18.754Z,11.57
2018-12-03T01:57:18.914Z,11.57
2018-12-03T01:58:18.736Z,11.55
2018-12-03T01:59:18.628Z,11.56
2018-12-03T02:00:18.681Z,11.57
2018-12-03T02:01:18.643Z,11.58
2018-12-03T02:02:18.590Z,11.57
2018-12-03T02:03:18.631Z,11.59
2018-12-03T02:04:18.576Z,11.57
2018-12-03T02:05:18.575Z,11.57
2018-12-03T02:06:18.606Z,11.58
2018-12-03T02:07:18.728Z,11.59
2018-12-03T02:08:18.782Z,11.55
2018-12-03T02:09:18.663Z,11.59
2018-12-03T02:10:18.593Z,11.57
2018-12-03T02:11:18.521Z,11.6
2018-12-03T02:12:18.704Z,11.62
2018-12-03T02:13:18.549Z,11.6
2018-12-03T02:14:19.056Z,11.62
2018-12-03T02:15:18.855Z,11.61
2018-12-03T02:16:18.555Z,11.57
2018-12-03T02:17:18.532Z,11.56
2018-12-03T02:18:18.587Z,11.6
2018-12-03T02:19:18.815Z,11.56
2018-12-03T02:20:18.571Z,11.61
2018-12-03T02:21:18.525Z,11.61
2018-12-03T02:22:18.617Z,11.61
2018-12-03T02:23:18.640Z,11.56
2018-12-03T02:24:18.699Z,11.58
2018-12-03T02:25:18.568Z,11.59
2018-12-03T02:26:18.593Z,11.57
2018-12-03T02:27:18.584Z,11.57
2018-12-03T02:28:18.559Z,11.6
2018-12-03T02:29:18.512Z,11.57
2018-12-03T02:30:18.538Z,11.56
2018-12-03T02:31:18.572Z,11.57
2018-12-03T02:32:18.731Z,11.6
2018-12-03T02:33:18.562Z,11.63
2018-12-03T02:34:18.578Z,11.6
2018-12-03T02:35:18.552Z,11.61
2018-12-03T02:36:18.457Z,11.6
2018-12-03T02:37:18.614Z,11.65
2018-12-03T02:38:18.733Z,11.61
2018-12-03T02:39:18.724Z,11.63
2018-12-03T02:40:18.565Z,11.62
2018-12-03T02:41:18.512Z,11.62
2018-12-03T02:42:18.669Z,11.62
2018-12-03T02:43:18.660Z,11.67
2018-12-03T02:44:18.508Z,11.62
2018-12-03T02:45:18.637Z,11.6
2018-12-03T02:46:18.667Z,11.64
2018-12-03T02:47:18.527Z,11.64
2018-12-03T02:48:18.615Z,11.59
2018-12-03T02:49:18.521Z,11.63
2018-12-03T02:50:18.589Z,11.61
2018-12-03T02:51:18.527Z,11.59
2018-12-03T02:52:18.492Z,11.6
2018-12-03T02:53:18.491Z,11.6
2018-12-03T02:54:18.490Z,11.62
2018-12-03T02:55:18.555Z,11.62
2018-12-03T02:56:18.481Z,11.62
2018-12-03T02:57:18.524Z,11.63
2018-12-03T02:58:18.495Z,11.63
2018-12-03T02:59:18.488Z,11.64
2018-12-03T03:00:18.464Z,11.62
2018-12-03T03:01:18.467Z,11.55
2018-12-03T03:02:18.771Z,11.62
2018-12-03T03:03:18.473Z,11.6
2018-12-03T03:04:18.447Z,11.62
2018-12-03T03:05:18.464Z,11.62
2018-12-03T03:06:18.424Z,11.61
2018-12-03T03:07:18.569Z,11.59
2018-12-03T03:08:18.431Z,11.56
2018-12-03T03:09:18.522Z,11.63
2018-12-03T03:10:18.460Z,11.62
2018-12-03T03:11:18.657Z,11.6
2018-12-03T03:12:18.486Z,11.61
2018-12-03T03:13:18.572Z,11.61
2018-12-03T03:14:18.663Z,11.6
2018-12-03T03:15:18.730Z,11.59
2018-12-03T03:16:18.566Z,11.57
2018-12-03T03:17:18.477Z,11.59
2018-12-03T03:18:18.617Z,11.58
2018-12-03T03:19:18.594Z,11.55
2018-12-03T03:20:18.703Z,11.62
2018-12-03T03:21:18.525Z,11.55
2018-12-03T03:22:18.513Z,11.54
2018-12-03T03:23:18.501Z,11.58
2018-12-03T03:24:18.500Z,11.57
2018-12-03T03:25:18.613Z,11.55
2018-12-03T03:26:18.414Z,11.59
2018-12-03T03:27:18.549Z,11.54
2018-12-03T03:28:18.438Z,11.61
2018-12-03T03:29:18.429Z,11.59
2018-12-03T03:30:18.606Z,11.57
2018-12-03T03:31:18.481Z,11.56
2018-12-03T03:32:18.456Z,11.54
2018-12-03T03:33:18.602Z,11.6
2018-12-03T03:34:18.482Z,11.57
2018-12-03T03:35:18.445Z,11.56
2018-12-03T03:36:18.583Z,11.55
2018-12-03T03:37:18.443Z,11.57
2018-12-03T03:38:18.460Z,11.54
2018-12-03T03:39:18.408Z,11.56
2018-12-03T03:40:18.429Z,11.53
2018-12-03T03:41:18.532Z,11.53
2018-12-03T03:42:18.398Z,11.51
2018-12-03T03:43:18.617Z,11.5
2018-12-03T03:44:18.530Z,11.52
2018-12-03T03:45:18.631Z,11.53
2018-12-03T03:46:18.505Z,11.5
2018-12-03T03:47:18.526Z,11.54
2018-12-03T03:48:18.668Z,11.52
2018-12-03T03:49:18.416Z,11.54
2018-12-03T03:50:18.524Z,11.52
2018-12-03T03:51:18.723Z,11.54
2018-12-03T03:52:18.438Z,11.54
2018-12-03T03:53:18.500Z,11.55
2018-12-03T03:54:18.386Z,11.54
2018-12-03T03:55:18.411Z,11.55
2018-12-03T03:56:18.466Z,11.52
2018-12-03T03:57:18.609Z,11.57
2018-12-03T03:58:18.597Z,11.54
2018-12-03T03:59:18.584Z,11.53
2018-12-03T04:00:18.411Z,11.52
2018-12-03T04:01:18.736Z,11.51
2018-12-03T04:02:18.648Z,11.57
2018-12-03T04:03:18.357Z,11.56
2018-12-03T04:04:18.484Z,11.5
2018-12-03T04:05:18.784Z,11.55
2018-12-03T04:06:18.526Z,11.53
2018-12-03T04:07:18.352Z,11.53
2018-12-03T04:08:18.440Z,11.52
2018-12-03T04:09:18.498Z,11.53
2018-12-03T04:10:18.514Z,11.55
2018-12-03T04:11:18.386Z,11.57
2018-12-03T04:12:18.386Z,11.57
2018-12-03T04:13:18.686Z,11.59
2018-12-03T04:14:18.506Z,11.59
2018-12-03T04:15:18.646Z,11.56
2018-12-03T04:16:18.454Z,11.56
2018-12-03T04:17:18.402Z,11.58
2018-12-03T04:18:18.484Z,11.6
2018-12-03T04:19:18.368Z,11.55
2018-12-03T04:20:18.573Z,11.55
2018-12-03T04:21:18.579Z,11.56
2018-12-03T04:22:18.440Z,11.57
2018-12-03T04:23:18.523Z,11.57
2018-12-03T04:24:18.694Z,11.57
2018-12-03T04:25:19.197Z,11.61
2018-12-03T04:26:19.177Z,11.61
2018-12-03T04:27:18.420Z,11.59
2018-12-03T04:28:18.342Z,11.57
2018-12-03T04:29:18.554Z,11.57
2018-12-03T04:30:18.566Z,11.6
2018-12-03T04:31:18.449Z,11.63
2018-12-03T04:32:18.475Z,11.64
2018-12-03T04:33:18.359Z,11.66
2018-12-03T04:34:18.368Z,11.66
2018-12-03T04:35:18.346Z,11.65
2018-12-03T04:36:18.487Z,11.68
2018-12-03T04:37:18.373Z,11.65
2018-12-03T04:38:18.331Z,11.65
2018-12-03T04:39:18.362Z,11.66
2018-12-03T04:40:18.420Z,11.68
2018-12-03T04:41:18.338Z,11.71
2018-12-03T04:42:18.453Z,11.69
2018-12-03T04:43:18.438Z,11.71
2018-12-03T04:44:18.414Z,11.71
2018-12-03T04:45:18.372Z,11.7
2018-12-03T04:46:18.356Z,11.74
2018-12-03T04:47:18.390Z,11.7
2018-12-03T04:48:18.468Z,11.71
2018-12-03T04:49:18.307Z,11.71
2018-12-03T04:50:18.518Z,11.69
2018-12-03T04:51:18.364Z,11.72
2018-12-03T04:52:18.321Z,11.72
2018-12-03T04:53:18.485Z,11.73
2018-12-03T04:54:19.213Z,11.74
2018-12-03T04:55:18.349Z,11.75
2018-12-03T04:56:18.392Z,11.73
2018-12-03T04:57:18.463Z,11.71
2018-12-03T04:58:18.419Z,11.74
2018-12-03T04:59:18.345Z,11.73
2018-12-03T05:00:18.534Z,11.73
2018-12-03T05:01:18.743Z,11.72
2018-12-03T05:02:18.647Z,11.78
2018-12-03T05:03:18.539Z,11.74
2018-12-03T05:04:18.323Z,11.76
2018-12-03T05:05:18.397Z,11.72
2018-12-03T05:06:18.546Z,11.71
2018-12-03T05:07:18.297Z,11.75
2018-12-03T05:08:18.532Z,11.76
2018-12-03T05:09:18.454Z,11.75
2018-12-03T05:10:18.331Z,11.75
2018-12-03T05:11:18.519Z,11.76
2018-12-03T05:12:18.415Z,11.73
2018-12-03T05:13:19.149Z,11.74
2018-12-03T05:14:18.376Z,11.73
2018-12-03T05:15:18.392Z,11.7
2018-12-03T05:16:18.384Z,11.74
2018-12-03T05:17:18.418Z,11.74
2018-12-03T05:18:18.298Z,11.74
2018-12-03T05:19:18.478Z,11.75
2018-12-03T05:20:18.460Z,11.73
2018-12-03T05:21:18.400Z,11.76
2018-12-03T05:22:18.303Z,11.77
2018-12-03T05:23:18.325Z,11.77
2018-12-03T05:24:18.524Z,11.77
2018-12-03T05:25:19.928Z,11.77
2018-12-03T05:26:18.433Z,11.78
2018-12-03T05:27:18.457Z,11.77
2018-12-03T05:28:18.344Z,11.75
2018-12-03T05:29:18.470Z,11.77
2018-12-03T05:30:18.250Z,11.74
2018-12-03T05:31:18.318Z,11.75
2018-12-03T05:32:18.337Z,11.74
2018-12-03T05:33:18.431Z,11.73
2018-12-03T05:34:18.306Z,11.75
2018-12-03T05:35:18.373Z,11.76
2018-12-03T05:36:18.337Z,11.75
2018-12-03T05:37:18.440Z,11.73
2018-12-03T05:38:18.267Z,11.73
2018-12-03T05:39:18.387Z,11.74
2018-12-03T05:40:18.502Z,11.72
2018-12-03T05:41:18.360Z,11.71
2018-12-03T05:42:18.259Z,11.72
2018-12-03T05:43:18.272Z,11.76
2018-12-03T05:44:19.171Z,11.74
2018-12-03T05:45:18.330Z,11.71
2018-12-03T05:46:18.325Z,11.68
2018-12-03T05:47:18.327Z,11.69
2018-12-03T05:48:18.387Z,11.71
2018-12-03T05:49:18.362Z,11.73
2018-12-03T05:50:18.325Z,11.71
2018-12-03T05:51:18.434Z,11.73
2018-12-03T05:52:18.383Z,11.72
2018-12-03T05:53:18.405Z,11.69
2018-12-03T05:54:18.275Z,11.71
2018-12-03T05:55:18.536Z,11.74
2018-12-03T05:56:18.237Z,11.73
2018-12-03T05:57:18.320Z,11.73
2018-12-03T05:58:18.396Z,11.75
2018-12-03T05:59:18.388Z,11.74
2018-12-03T06:00:18.278Z,11.73
2018-12-03T06:01:18.304Z,11.76
2018-12-03T06:02:18.633Z,11.71
2018-12-03T06:03:18.277Z,11.72
2018-12-03T06:04:18.594Z,11.73
2018-12-03T06:05:19.071Z,11.74
2018-12-03T06:06:18.269Z,11.74
2018-12-03T06:07:18.323Z,11.74
2018-12-03T06:08:18.349Z,11.73
2018-12-03T06:09:18.486Z,11.72
2018-12-03T06:10:18.296Z,11.71
2018-12-03T06:11:18.263Z,11.71
2018-12-03T06:12:18.510Z,11.71
2018-12-03T06:13:18.438Z,11.72
2018-12-03T06:14:18.252Z,11.69
2018-12-03T06:15:18.433Z,11.72
2018-12-03T06:16:18.209Z,11.71
2018-12-03T06:17:18.237Z,11.69
2018-12-03T06:18:18.178Z,11.71
2018-12-03T06:19:18.234Z,11.71
2018-12-03T06:20:18.214Z,11.71
2018-12-03T06:21:18.520Z,11.71
2018-12-03T06:22:18.206Z,11.68
2018-12-03T06:23:18.244Z,11.69
2018-12-03T06:24:18.185Z,11.72
2018-12-03T06:25:18.292Z,11.7
2018-12-03T06:26:18.335Z,11.69
2018-12-03T06:27:18.238Z,11.66
2018-12-03T06:28:18.248Z,11.7
2018-12-03T06:29:19.076Z,11.71
2018-12-03T06:30:18.271Z,11.68
2018-12-03T06:31:18.437Z,11.69
2018-12-03T06:32:18.347Z,11.71
2018-12-03T06:33:18.540Z,11.68
2018-12-03T06:34:19.301Z,11.71
2018-12-03T06:35:18.267Z,11.66
2018-12-03T06:36:18.247Z,11.65
2018-12-03T06:37:18.423Z,11.6
2018-12-03T06:38:18.344Z,11.61
2018-12-03T06:39:18.388Z,11.63
2018-12-03T06:40:19.093Z,11.67
2018-12-03T06:41:18.576Z,11.61
2018-12-03T06:42:18.440Z,11.62
2018-12-03T06:43:18.204Z,11.59
2018-12-03T06:44:18.174Z,11.54
2018-12-03T06:45:18.268Z,11.57
2018-12-03T06:46:18.457Z,11.57
2018-12-03T06:47:18.349Z,11.58
2018-12-03T06:48:18.543Z,11.58
2018-12-03T06:49:18.445Z,11.53
2018-12-03T06:50:18.210Z,11.54
2018-12-03T06:51:18.194Z,11.53
2018-12-03T06:52:18.393Z,11.53
2018-12-03T06:53:18.365Z,11.52
2018-12-03T06:54:18.613Z,11.53
2018-12-03T06:55:18.201Z,11.53
2018-12-03T06:56:18.278Z,11.5
2018-12-03T06:57:18.239Z,11.48
2018-12-03T06:58:18.208Z,11.48
2018-12-03T06:59:18.373Z,11.48
2018-12-03T07:00:18.267Z,11.47
2018-12-03T07:01:18.229Z,11.47
2018-12-03T07:02:18.329Z,11.48
2018-12-03T07:03:18.280Z,11.45
2018-12-03T07:04:18.390Z,11.42
2018-12-03T07:05:18.350Z,11.42
2018-12-03T07:06:18.257Z,11.43
2018-12-03T07:07:18.319Z,11.45
2018-12-03T07:08:18.381Z,11.46
2018-12-03T07:09:18.500Z,11.48
2018-12-03T07:10:18.246Z,11.48
2018-12-03T07:11:18.202Z,11.49
2018-12-03T07:12:18.213Z,11.49
2018-12-03T07:13:18.344Z,11.46
2018-12-03T07:14:18.212Z,11.49
2018-12-03T07:15:18.234Z,11.53
2018-12-03T07:16:18.201Z,11.5
2018-12-03T07:17:18.231Z,11.51
2018-12-03T07:18:18.315Z,11.51
2018-12-03T07:19:18.307Z,11.52
2018-12-03T07:20:18.302Z,11.51
2018-12-03T07:21:19.019Z,11.55
2018-12-03T07:22:18.577Z,11.54
2018-12-03T07:23:18.289Z,11.54
2018-12-03T07:24:18.236Z,11.51
2018-12-03T07:25:18.110Z,11.57
2018-12-03T07:26:18.222Z,11.53
2018-12-03T07:27:18.227Z,11.56
2018-12-03T07:28:18.236Z,11.54
2018-12-03T07:29:18.289Z,11.55
2018-12-03T07:30:18.186Z,11.55
2018-12-03T07:31:18.389Z,11.53
2018-12-03T07:32:18.165Z,11.52
2018-12-03T07:33:18.345Z,11.51
2018-12-03T07:34:18.091Z,11.48
2018-12-03T07:35:18.919Z,11.51
2018-12-03T07:36:18.147Z,11.51
2018-12-03T07:37:18.125Z,11.51
2018-12-03T07:38:18.974Z,11.48
2018-12-03T07:39:18.329Z,11.49
2018-12-03T07:40:18.338Z,11.48
2018-12-03T07:41:18.178Z,11.47
2018-12-03T07:42:18.168Z,11.52
2018-12-03T07:43:18.229Z,11.49
2018-12-03T07:44:18.204Z,11.49
2018-12-03T07:45:18.332Z,11.54
2018-12-03T07:46:18.257Z,11.61
2018-12-03T07:47:18.175Z,11.6
2018-12-03T07:48:18.169Z,11.63
2018-12-03T07:49:18.171Z,11.65
2018-12-03T07:50:18.517Z,11.63
2018-12-03T07:51:18.163Z,11.62
2018-12-03T07:52:18.191Z,11.6
2018-12-03T07:53:18.185Z,11.6
2018-12-03T07:54:18.133Z,11.62
2018-12-03T07:55:18.145Z,11.6
2018-12-03T07:56:18.135Z,11.61
2018-12-03T07:57:18.107Z,11.61
2018-12-03T07:58:18.160Z,11.61
2018-12-03T07:59:18.105Z,11.6
2018-12-03T08:00:18.149Z,11.61
2018-12-03T08:01:18.181Z,11.62
2018-12-03T08:02:18.141Z,11.63
2018-12-03T08:03:18.098Z,11.63
2018-12-03T08:04:18.179Z,11.59
2018-12-03T08:05:18.202Z,11.61
2018-12-03T08:06:18.103Z,11.65
2018-12-03T08:07:18.182Z,11.65
2018-12-03T08:08:18.406Z,11.62
2018-12-03T08:09:18.290Z,11.67
2018-12-03T08:10:18.154Z,11.65
2018-12-03T08:11:18.362Z,11.66
2018-12-03T08:12:18.231Z,11.71
2018-12-03T08:13:18.187Z,11.69
2018-12-03T08:14:18.317Z,11.72
2018-12-03T08:15:18.169Z,11.72
2018-12-03T08:16:18.125Z,11.7
2018-12-03T08:17:18.415Z,11.75
2018-12-03T08:18:20.370Z,11.75
2018-12-03T08:19:18.465Z,11.77
2018-12-03T08:20:18.286Z,11.75
2018-12-03T08:21:18.428Z,11.74
2018-12-03T08:22:18.393Z,11.76
2018-12-03T08:23:18.170Z,11.77
2018-12-03T08:24:18.228Z,11.77
2018-12-03T08:25:19.003Z,11.8
2018-12-03T08:26:20.583Z,11.8
2018-12-03T08:27:18.282Z,11.82
2018-12-03T08:28:18.230Z,11.81
2018-12-03T08:29:18.042Z,11.8
2018-12-03T08:30:18.272Z,11.79
2018-12-03T08:31:18.329Z,11.82
2018-12-03T08:32:18.278Z,11.79
2018-12-03T08:33:18.162Z,11.79
2018-12-03T08:34:18.098Z,11.8
2018-12-03T08:35:18.154Z,11.79
2018-12-03T08:36:18.314Z,11.82
2018-12-03T08:37:18.149Z,11.85
2018-12-03T08:38:18.176Z,11.87
2018-12-03T08:39:18.130Z,11.81
2018-12-03T08:40:18.227Z,11.82
2018-12-03T08:41:18.459Z,11.83
2018-12-03T08:42:19.264Z,11.84
2018-12-03T08:43:18.175Z,11.88
2018-12-03T08:44:18.149Z,11.86
2018-12-03T08:45:18.330Z,11.89
2018-12-03T08:46:18.319Z,11.89
2018-12-03T08:47:18.074Z,11.84
2018-12-03T08:48:18.126Z,11.85
2018-12-03T08:49:18.179Z,11.84
2018-12-03T08:50:18.126Z,11.86
2018-12-03T08:51:18.424Z,11.87
2018-12-03T08:52:18.070Z,11.87
2018-12-03T08:53:19.105Z,11.86
2018-12-03T08:54:18.170Z,11.86
2018-12-03T08:55:18.180Z,11.83
2018-12-03T08:56:18.291Z,11.86
2018-12-03T08:57:19.397Z,11.84
2018-12-03T08:58:21.340Z,11.84
2018-12-03T08:59:18.404Z,11.85
2018-12-03T09:00:18.892Z,11.8
2018-12-03T09:01:18.443Z,11.84
2018-12-03T09:02:18.200Z,11.81
2018-12-03T09:03:18.090Z,11.81
2018-12-03T09:04:18.270Z,11.8
2018-12-03T09:05:21.070Z,11.8
2018-12-03T09:06:18.448Z,11.81
2018-12-03T09:07:20.612Z,11.79
2018-12-03T09:08:18.048Z,11.83
2018-12-03T09:09:18.140Z,11.81
2018-12-03T09:10:18.378Z,11.8
2018-12-03T09:11:18.254Z,11.81
2018-12-03T09:12:22.199Z,11.8
2018-12-03T09:13:18.260Z,11.81
2018-12-03T09:14:18.303Z,11.82
2018-12-03T09:15:18.196Z,11.81
2018-12-03T09:16:18.047Z,11.84
2018-12-03T09:17:18.067Z,11.83
2018-12-03T09:18:18.924Z,11.88
2018-12-03T09:19:18.905Z,11.85
2018-12-03T09:20:18.229Z,11.8
2018-12-03T09:21:18.300Z,11.82
2018-12-03T09:22:18.155Z,11.8
2018-12-03T09:23:21.602Z,11.8
2018-12-03T09:24:18.188Z,11.83
2018-12-03T09:25:19.169Z,11.85
2018-12-03T09:26:18.130Z,11.81
2018-12-03T09:27:18.328Z,11.8
2018-12-03T09:28:18.164Z,11.76
2018-12-03T09:29:18.134Z,11.73
2018-12-03T09:30:18.091Z,11.74
2018-12-03T09:31:18.136Z,11.74
2018-12-03T09:32:18.084Z,11.71
2018-12-03T09:33:18.097Z,11.68
2018-12-03T09:34:18.137Z,11.68
2018-12-03T09:35:18.703Z,11.67
2018-12-03T09:36:18.095Z,11.69
2018-12-03T09:37:19.160Z,11.67
2018-12-03T09:38:18.087Z,11.7
2018-12-03T09:39:18.088Z,11.72
2018-12-03T09:40:18.127Z,11.77
2018-12-03T09:41:18.062Z,11.74
2018-12-03T09:42:18.039Z,11.73
2018-12-03T09:43:18.193Z,11.71
2018-12-03T09:44:18.185Z,11.62
2018-12-03T09:45:18.203Z,11.53
2018-12-03T09:46:18.013Z,11.49
2018-12-03T09:47:18.075Z,11.5
2018-12-03T09:48:18.078Z,11.45
2018-12-03T09:49:18.203Z,11.45
2018-12-03T09:50:18.239Z,11.43
2018-12-03T09:51:18.065Z,11.42
2018-12-03T09:52:18.234Z,11.43
2018-12-03T09:53:17.977Z,11.34
2018-12-03T09:54:17.983Z,11.35
2018-12-03T09:55:18.108Z,11.33
2018-12-03T09:56:18.033Z,11.35
2018-12-03T09:57:18.300Z,11.3
2018-12-03T09:58:17.993Z,11.3
2018-12-03T09:59:18.170Z,11.29
2018-12-03T10:00:18.092Z,11.31
2018-12-03T10:01:18.136Z,11.3
2018-12-03T10:02:18.155Z,11.32
2018-12-03T10:03:18.304Z,11.35
2018-12-03T10:04:18.004Z,11.35
2018-12-03T10:05:18.097Z,11.38
2018-12-03T10:06:18.064Z,11.38
2018-12-03T10:07:18.123Z,11.42
2018-12-03T10:08:18.033Z,11.49
2018-12-03T10:09:18.103Z,11.44
2018-12-03T10:10:18.146Z,11.41
2018-12-03T10:11:18.411Z,11.35
2018-12-03T10:12:18.539Z,11.32
2018-12-03T10:13:18.302Z,11.36
2018-12-03T10:14:18.075Z,11.33
2018-12-03T10:15:18.130Z,11.32
2018-12-03T10:16:17.968Z,11.33
2018-12-03T10:17:18.090Z,11.34
2018-12-03T10:18:18.630Z,11.37
2018-12-03T10:19:18.154Z,11.34
2018-12-03T10:20:18.286Z,11.29
2018-12-03T10:21:18.003Z,11.27
2018-12-03T10:22:18.070Z,11.35
2018-12-03T10:23:18.202Z,11.36
2018-12-03T10:24:18.380Z,11.32
2018-12-03T10:25:18.150Z,11.29
2018-12-03T10:26:17.985Z,11.27
2018-12-03T10:27:18.088Z,11.33
2018-12-03T10:28:18.686Z,11.31
2018-12-03T10:29:18.210Z,11.27
2018-12-03T10:30:18.195Z,11.27
2018-12-03T10:31:17.929Z,11.26
2018-12-03T10:32:18.164Z,11.26
2018-12-03T10:33:18.120Z,11.3
2018-12-03T10:34:18.126Z,11.37
2018-12-03T10:35:18.187Z,11.39
2018-12-03T10:36:18.012Z,11.4
2018-12-03T10:37:18.022Z,11.32
2018-12-03T10:38:18.018Z,11.39
2018-12-03T10:39:18.126Z,11.38
2018-12-03T10:40:20.948Z,11.4
2018-12-03T10:41:17.906Z,11.44
2018-12-03T10:42:18.244Z,11.4
2018-12-03T10:43:18.055Z,11.35
2018-12-03T10:44:18.078Z,11.36
2018-12-03T10:45:17.971Z,11.33
2018-12-03T10:46:17.921Z,11.4
2018-12-03T10:47:18.561Z,11.38
2018-12-03T10:48:18.119Z,11.37
2018-12-03T10:49:18.119Z,11.36
2018-12-03T10:50:22.579Z,11.34
2018-12-03T10:51:18.153Z,11.37
2018-12-03T10:52:17.933Z,11.38
2018-12-03T10:53:18.190Z,11.37
2018-12-03T10:54:18.185Z,11.37
2018-12-03T10:55:18.300Z,11.34
2018-12-03T10:56:17.959Z,11.35
2018-12-03T10:57:18.186Z,11.34
2018-12-03T10:58:17.919Z,11.33
2018-12-03T10:59:17.915Z,11.33
2018-12-03T11:00:17.924Z,11.32
2018-12-03T11:01:17.929Z,11.3
2018-12-03T11:02:17.886Z,11.37
2018-12-03T11:03:17.909Z,11.39
2018-12-03T11:04:18.122Z,11.38
2018-12-03T11:05:17.888Z,11.37
2018-12-03T11:06:18.252Z,11.4
2018-12-03T11:07:18.024Z,11.43
2018-12-03T11:08:17.882Z,11.37
2018-12-03T11:09:17.887Z,11.36
2018-12-03T11:10:17.927Z,11.36
2018-12-03T11:11:18.038Z,11.35
2018-12-03T11:12:18.246Z,11.33
2018-12-03T11:13:18.116Z,11.33
2018-12-03T11:14:18.141Z,11.33
2018-12-03T11:15:17.872Z,11.34
2018-12-03T11:16:17.952Z,11.32
2018-12-03T11:17:17.856Z,11.34
2018-12-03T11:18:17.893Z,11.31
2018-12-03T11:19:17.852Z,11.4
2018-12-03T11:20:17.913Z,11.38
2018-12-03T11:21:18.254Z,11.31
2018-12-03T11:22:18.117Z,11.28
2018-12-03T11:23:17.942Z,11.28
2018-12-03T11:24:17.876Z,11.26
2018-12-03T11:25:18.166Z,11.21
2018-12-03T11:26:17.871Z,11.22
2018-12-03T11:27:18.097Z,11.21
2018-12-03T11:28:17.945Z,11.25
2018-12-03T11:29:17.957Z,11.21
2018-12-03T11:30:18.199Z,11.21
2018-12-03T11:31:18.276Z,11.18
2018-12-03T11:32:17.854Z,11.2
2018-12-03T11:33:17.898Z,11.21
2018-12-03T11:34:17.999Z,11.19
2018-12-03T11:35:18.199Z,11.13
2018-12-03T11:36:18.075Z,11.12
2018-12-03T11:37:17.939Z,11.07
2018-12-03T11:38:18.695Z,11.05
2018-12-03T11:39:18.090Z,11.08
2018-12-03T11:40:17.838Z,11.07
2018-12-03T11:41:17.899Z,11.12
2018-12-03T11:42:18.201Z,11.14
2018-12-03T11:43:18.218Z,11.13
2018-12-03T11:44:17.830Z,11.12
2018-12-03T11:45:18.068Z,11.08
2018-12-03T11:46:17.875Z,11.08
2018-12-03T11:47:18.022Z,11.11
2018-12-03T11:48:17.989Z,11.15
2018-12-03T11:49:18.259Z,11.14
2018-12-03T11:50:17.921Z,11.11
2018-12-03T11:51:17.812Z,11.09
2018-12-03T11:52:18.082Z,11.1
2018-12-03T11:53:18.610Z,11.1
2018-12-03T11:54:18.003Z,11.07
2018-12-03T11:55:17.943Z,11.17
2018-12-03T11:56:18.103Z,11.2
2018-12-03T11:57:17.874Z,11.17
2018-12-03T11:58:25.665Z,11.14
2018-12-03T11:59:18.227Z,11.1
2018-12-03T12:00:17.883Z,11.1
2018-12-03T12:01:17.947Z,11.22
2018-12-03T12:02:18.251Z,11.19
2018-12-03T12:03:18.055Z,11.18
2018-12-03T12:04:18.009Z,11.14
2018-12-03T12:05:17.912Z,11.17
2018-12-03T12:06:18.216Z,11.16
2018-12-03T12:07:18.050Z,11.15
2018-12-03T12:08:17.906Z,11.17
2018-12-03T12:09:21.373Z,11.16
2018-12-03T12:10:21.162Z,11.19
2018-12-03T12:11:18.245Z,11.21
2018-12-03T12:12:17.986Z,11.22
2018-12-03T12:13:17.994Z,11.2
2018-12-03T12:14:18.320Z,11.21
2018-12-03T12:15:17.968Z,11.24
2018-12-03T12:16:18.080Z,11.25
2018-12-03T12:17:18.040Z,11.26
2018-12-03T12:18:18.085Z,11.25
2018-12-03T12:19:17.996Z,11.31
2018-12-03T12:20:17.919Z,11.36
2018-12-03T12:21:17.779Z,11.5
2018-12-03T12:22:17.795Z,11.47
2018-12-03T12:23:17.787Z,11.46
2018-12-03T12:24:17.797Z,11.43
2018-12-03T12:25:18.228Z,11.44
2018-12-03T12:26:17.845Z,11.48
2018-12-03T12:27:17.932Z,11.51
2018-12-03T12:28:17.807Z,11.52
2018-12-03T12:29:17.843Z,11.51
2018-12-03T12:30:17.926Z,11.54
2018-12-03T12:31:17.964Z,11.53
2018-12-03T12:32:18.176Z,11.55
2018-12-03T12:33:18.394Z,11.54
2018-12-03T12:34:17.834Z,11.56
2018-12-03T12:35:18.215Z,11.56
2018-12-03T12:36:18.609Z,11.54
2018-12-03T12:37:17.886Z,11.56
2018-12-03T12:38:17.880Z,11.55
2018-12-03T12:39:17.809Z,11.56
2018-12-03T12:40:17.820Z,11.62
2018-12-03T12:41:17.796Z,11.6
2018-12-03T12:42:17.761Z,11.59
2018-12-03T12:43:17.839Z,11.56
2018-12-03T12:44:17.797Z,11.57
2018-12-03T12:45:17.898Z,11.59
2018-12-03T12:46:17.804Z,11.56
2018-12-03T12:47:17.777Z,11.63
2018-12-03T12:48:17.845Z,11.62
2018-12-03T12:49:17.839Z,11.63
2018-12-03T12:50:17.899Z,11.64
2018-12-03T12:51:17.909Z,11.64
2018-12-03T12:52:18.107Z,11.66
2018-12-03T12:53:17.795Z,11.72
2018-12-03T12:54:17.783Z,11.71
2018-12-03T12:55:17.901Z,11.74